Time;durP1;ratioP1;P1;durP2;ratioP2;P2;SDS_P1;SDS_P2;PMS_P1;PMS_P2;Temp;Humidity;BMP_temperature;BMP_pressure;BME280_temperature;BME280_humidity;BME280_pressure;Samples;Min_cycle;Max_cycle;Signal;HPM_P1;HPM_P2
2022/04/07 00:01:19;;;;;;;10.10;7.93;;;9.90;99.90;;;;;;5011688;28;20498;-74
2022/04/07 00:03:45;;;;;;;10.57;9.02;;;9.80;99.90;;;;;;5001787;28;20521;-75
2022/04/07 00:06:10;;;;;;;12.25;9.73;;;9.90;99.90;;;;;;5005455;28;20042;-75
2022/04/07 00:08:40;;;;;;;11.43;9.77;;;9.80;99.90;;;;;;5004144;28;20061;-75
2022/04/07 00:11:07;;;;;;;10.52;9.52;;;9.80;99.90;;;;;;5003629;28;20346;-75
2022/04/07 00:13:33;;;;;;;10.02;9.02;;;9.80;99.90;;;;;;5105964;27;20052;-75
2022/04/07 00:16:00;;;;;;;10.88;9.77;;;9.80;99.90;;;;;;5004046;28;20046;-75
2022/04/07 00:18:26;;;;;;;10.90;9.90;;;9.70;99.90;;;;;;5000947;28;20052;-74
2022/04/07 00:20:55;;;;;;;11.45;10.25;;;9.70;99.90;;;;;;5001469;28;20046;-75
2022/04/07 00:23:21;;;;;;;11.35;10.20;;;9.80;99.90;;;;;;5003981;28;20045;-75
2022/04/07 00:25:48;;;;;;;11.20;9.73;;;9.70;99.90;;;;;;5003087;28;20816;-75
2022/04/07 00:28:13;;;;;;;10.63;9.35;;;9.70;99.90;;;;;;5004809;28;20049;-75
2022/04/07 00:30:39;;;;;;;10.63;9.55;;;9.80;99.90;;;;;;5004139;28;20107;-74
2022/04/07 00:33:06;;;;;;;10.05;9.00;;;9.70;99.90;;;;;;5006119;28;20109;-74
2022/04/07 00:35:32;;;;;;;11.23;9.10;;;9.80;99.90;;;;;;5005747;28;20054;-74
2022/04/07 00:37:57;;;;;;;10.27;9.27;;;9.80;99.90;;;;;;5006298;28;20052;-74
2022/04/07 00:40:23;;;;;;;10.88;9.20;;;9.80;99.90;;;;;;5005725;28;20087;-74
2022/04/07 00:42:51;;;;;;;11.68;9.55;;;9.80;99.90;;;;;;5004293;28;20042;-75
2022/04/07 00:45:18;;;;;;;;;;;9.80;99.90;;;;;;5004522;28;20117;-75
2022/04/07 00:47:45;;;;;;;11.93;9.60;;;9.70;99.90;;;;;;5004907;28;19925;-75
2022/04/07 00:50:12;;;;;;;10.90;9.77;;;9.70;99.90;;;;;;5004591;28;20568;-75
2022/04/07 00:52:41;;;;;;;10.60;9.50;;;9.70;99.90;;;;;;5005432;28;20088;-74
2022/04/07 00:55:09;;;;;;;11.20;10.00;;;9.70;99.90;;;;;;5005882;28;20546;-75
2022/04/07 00:57:37;;;;;;;12.25;9.32;;;9.70;99.90;;;;;;5006329;28;20034;-74
2022/04/07 01:00:04;;;;;;;11.75;9.05;;;9.70;99.90;;;;;;5004766;28;20488;-75
2022/04/07 01:02:30;;;;;;;12.35;8.80;;;9.70;99.90;;;;;;5004929;28;20046;-75
2022/04/07 01:04:58;;;;;;;13.77;9.27;;;9.70;99.90;;;;;;5004874;28;20054;-75
2022/04/07 01:07:27;;;;;;;13.48;9.20;;;9.70;99.90;;;;;;5000260;28;20098;-75
2022/04/07 01:09:52;;;;;;;10.50;9.40;;;9.70;99.90;;;;;;5003530;28;20049;-75
2022/04/07 01:12:18;;;;;;;9.52;8.55;;;9.70;99.90;;;;;;5004647;28;20458;-75
2022/04/07 01:15:02;;;;;;;9.80;8.80;;;9.70;99.90;;;;;;5001481;28;20050;-75
2022/04/07 01:17:28;;;;;;;12.07;9.10;;;9.70;99.90;;;;;;4997910;28;20049;-75
2022/04/07 01:19:54;;;;;;;10.80;8.82;;;9.60;99.90;;;;;;5003396;28;20120;-75
2022/04/07 01:22:21;;;;;;;10.15;8.85;;;9.60;99.90;;;;;;5004032;28;20111;-75
2022/04/07 01:24:47;;;;;;;10.73;8.93;;;9.60;99.90;;;;;;5009383;28;20034;-75
2022/04/07 01:27:14;;;;;;;9.60;8.50;;;9.60;99.90;;;;;;5008393;28;20084;-75
2022/04/07 01:29:40;;;;;;;11.25;9.10;;;9.60;99.90;;;;;;5011817;28;20054;-75
2022/04/07 01:32:19;;;;;;;9.80;8.48;;;9.60;99.90;;;;;;5005803;28;20042;-75
2022/04/07 01:34:46;;;;;;;9.90;8.88;;;9.60;99.90;;;;;;5005690;28;20046;-75
2022/04/07 01:37:12;;;;;;;10.70;8.93;;;9.60;99.90;;;;;;5007929;28;20042;-74
2022/04/07 01:39:41;;;;;;;11.15;9.07;;;9.60;99.90;;;;;;5008934;28;20049;-74
2022/04/07 01:42:11;;;;;;;11.52;9.10;;;9.60;99.90;;;;;;5009739;28;20052;-75
2022/04/07 01:44:42;;;;;;;11.63;8.77;;;9.70;99.90;;;;;;5004594;28;20141;-74
2022/04/07 01:47:11;;;;;;;9.75;8.30;;;9.60;99.90;;;;;;5005972;28;20511;-75
2022/04/07 01:49:40;;;;;;;12.20;8.75;;;9.60;99.90;;;;;;5005476;28;20049;-75
2022/04/07 01:52:07;;;;;;;9.02;7.60;;;9.60;99.90;;;;;;5008304;28;20529;-74
2022/04/07 01:54:34;;;;;;;12.90;7.32;;;9.60;99.90;;;;;;5009041;28;20029;-74
2022/04/07 01:57:01;;;;;;;11.50;7.93;;;9.60;99.90;;;;;;5001531;28;20037;-75
2022/04/07 01:59:28;;;;;;;9.75;6.93;;;9.60;99.90;;;;;;5005749;28;20105;-75
2022/04/07 02:01:53;;;;;;;6.78;5.57;;;9.60;99.90;;;;;;5006390;28;20045;-75
2022/04/07 02:04:19;;;;;;;11.18;5.90;;;9.60;99.90;;;;;;5007264;28;20121;-74
2022/04/07 02:06:45;;;;;;;9.50;6.50;;;9.60;99.90;;;;;;5006781;28;20034;-75
2022/04/07 02:09:10;;;;;;;10.10;6.25;;;9.60;99.90;;;;;;5005304;28;20057;-74
2022/04/07 02:11:36;;;;;;;10.40;7.20;;;9.60;99.90;;;;;;5007123;28;20046;-75
2022/04/07 02:14:02;;;;;;;9.32;6.78;;;9.60;99.90;;;;;;5002976;28;20030;-75
2022/04/07 02:16:29;;;;;;;8.57;6.72;;;9.50;99.90;;;;;;5008970;28;20481;-75
2022/04/07 02:18:54;;;;;;;9.27;6.38;;;9.50;99.90;;;;;;5005959;28;20634;-75
2022/04/07 02:21:20;;;;;;;11.27;6.78;;;9.50;99.90;;;;;;5005530;28;20048;-75
2022/04/07 02:23:45;;;;;;;10.73;6.70;;;9.50;99.90;;;;;;5009464;28;20119;-74
2022/04/07 02:26:16;;;;;;;7.90;6.88;;;9.50;99.90;;;;;;5008871;28;20426;-75
2022/04/07 02:28:42;;;;;;;12.15;7.25;;;9.50;99.90;;;;;;5009131;28;20443;-74
2022/04/07 02:31:08;;;;;;;11.68;8.27;;;9.50;99.90;;;;;;5007366;28;21072;-75
2022/04/07 02:33:35;;;;;;;14.27;8.43;;;9.50;99.90;;;;;;5003368;28;20157;-74
2022/04/07 02:36:05;;;;;;;13.93;7.90;;;9.50;99.90;;;;;;5006559;28;20181;-75
2022/04/07 02:38:31;;;;;;;15.25;8.25;;;9.50;99.90;;;;;;5004741;28;20055;-75
2022/04/07 02:40:59;;;;;;;13.68;8.73;;;9.50;99.90;;;;;;5006988;28;20074;-75
2022/04/07 02:43:25;;;;;;;11.50;8.05;;;9.50;99.90;;;;;;5010808;28;20088;-75
2022/04/07 02:45:51;;;;;;;10.88;7.70;;;9.50;99.90;;;;;;5006589;28;20137;-75
2022/04/07 02:48:17;;;;;;;12.30;7.72;;;9.50;99.90;;;;;;5006074;28;20053;-74
2022/04/07 02:50:43;;;;;;;12.52;7.47;;;9.50;99.90;;;;;;5004136;28;20046;-76
2022/04/07 02:53:09;;;;;;;15.73;7.73;;;9.50;99.90;;;;;;5007272;28;20038;-75
2022/04/07 02:55:35;;;;;;;10.32;7.32;;;9.50;99.90;;;;;;5005628;28;20040;-74
2022/04/07 02:58:01;;;;;;;10.90;7.13;;;9.50;99.90;;;;;;5008604;28;20050;-75
2022/04/07 03:00:26;;;;;;;11.40;7.05;;;9.50;99.90;;;;;;5021661;28;20475;-75
2022/04/07 03:02:52;;;;;;;10.93;6.40;;;9.50;99.90;;;;;;5019978;28;20050;-75
2022/04/07 03:05:24;;;;;;;10.30;7.03;;;9.50;99.90;;;;;;5003473;28;20046;-75
2022/04/07 03:07:49;;;;;;;12.85;6.63;;;9.50;99.90;;;;;;5012946;28;20056;-75
2022/04/07 03:10:15;;;;;;;9.52;5.88;;;9.50;99.90;;;;;;5019558;28;20037;-74
2022/04/07 03:12:43;;;;;;;10.80;6.30;;;9.50;99.90;;;;;;5007496;28;20045;-75
2022/04/07 03:15:12;;;;;;;11.48;6.20;;;9.50;99.90;;;;;;5005604;28;20505;-75
2022/04/07 03:17:38;;;;;;;10.23;5.60;;;9.50;99.90;;;;;;5006785;28;20442;-75
2022/04/07 03:20:05;;;;;;;9.13;5.68;;;9.50;99.90;;;;;;5004276;28;20452;-75
2022/04/07 03:22:30;;;;;;;7.60;4.80;;;9.40;99.90;;;;;;5007137;28;20069;-75
2022/04/07 03:24:56;;;;;;;11.50;5.03;;;9.40;99.90;;;;;;5022403;28;20034;-75
2022/04/07 03:27:22;;;;;;;9.82;4.85;;;9.40;99.90;;;;;;5004186;28;20054;-75
2022/04/07 03:29:47;;;;;;;11.20;4.68;;;9.40;99.90;;;;;;5005585;28;20053;-75
2022/04/07 03:32:13;;;;;;;7.57;4.35;;;9.40;99.90;;;;;;5003399;28;20425;-74
2022/04/07 03:34:38;;;;;;;10.80;4.60;;;9.40;99.90;;;;;;5003636;28;20050;-75
2022/04/07 03:37:05;;;;;;;12.57;4.68;;;9.40;99.90;;;;;;5012387;28;20049;-75
2022/04/07 03:39:31;;;;;;;9.82;4.65;;;9.40;99.90;;;;;;5018925;28;20072;-75
2022/04/07 03:41:57;;;;;;;11.48;4.70;;;9.40;99.90;;;;;;5014378;28;20049;-75
2022/04/07 03:44:22;;;;;;;12.40;4.47;;;9.40;99.90;;;;;;5004078;28;20484;-75
2022/04/07 03:46:48;;;;;;;14.18;4.40;;;9.30;99.90;;;;;;5010601;28;20083;-76
2022/04/07 03:49:14;;;;;;;16.02;4.53;;;9.30;99.90;;;;;;5010064;28;20053;-75
2022/04/07 03:51:39;;;;;;;13.55;4.85;;;9.30;99.90;;;;;;5005165;28;20050;-75
2022/04/07 03:54:05;;;;;;;14.07;4.88;;;9.30;99.90;;;;;;5105684;27;20046;-75
2022/04/07 03:56:31;;;;;;;12.70;4.50;;;9.30;99.90;;;;;;5003798;28;20048;-75
2022/04/07 03:58:58;;;;;;;14.95;4.78;;;9.30;99.90;;;;;;5002092;28;20046;-75
2022/04/07 04:01:27;;;;;;;11.95;4.88;;;9.30;99.90;;;;;;5005372;28;20105;-75
2022/04/07 04:03:53;;;;;;;15.27;4.88;;;9.30;99.90;;;;;;5006791;28;20069;-75
2022/04/07 04:06:18;;;;;;;14.68;4.82;;;9.30;99.90;;;;;;5011962;28;20484;-75
2022/04/07 04:08:44;;;;;;;13.45;4.97;;;9.30;99.90;;;;;;5099485;27;20041;-75
2022/04/07 04:11:12;;;;;;;14.05;5.22;;;9.30;99.90;;;;;;5007746;28;20378;-75
2022/04/07 04:13:38;;;;;;;13.50;4.78;;;9.30;99.90;;;;;;5007024;28;20126;-75
2022/04/07 04:16:04;;;;;;;13.82;4.68;;;9.20;99.90;;;;;;5005891;28;20099;-74
2022/04/07 04:18:30;;;;;;;15.93;4.95;;;9.30;99.90;;;;;;5004338;28;20067;-75
2022/04/07 04:20:58;;;;;;;16.48;4.93;;;9.30;99.90;;;;;;5002691;28;20034;-75
2022/04/07 04:23:24;;;;;;;16.40;5.00;;;9.30;99.90;;;;;;5003845;28;20042;-75
2022/04/07 04:25:50;;;;;;;17.58;5.60;;;9.30;99.90;;;;;;5005813;28;20400;-75
2022/04/07 04:28:15;;;;;;;13.80;5.15;;;9.30;99.90;;;;;;5000108;28;20056;-75
2022/04/07 04:30:44;;;;;;;16.70;5.10;;;9.30;99.90;;;;;;5003519;28;20042;-75
2022/04/07 04:33:10;;;;;;;17.80;5.90;;;9.30;99.90;;;;;;5002292;28;20052;-75
2022/04/07 04:35:36;;;;;;;17.52;5.32;;;9.30;99.90;;;;;;5106219;27;20045;-75
2022/04/07 04:38:01;;;;;;;19.00;5.50;;;9.30;99.90;;;;;;5003082;28;20045;-75
2022/04/07 04:40:27;;;;;;;17.25;5.13;;;9.30;99.90;;;;;;5017418;28;20116;-75
2022/04/07 04:42:52;;;;;;;17.25;5.50;;;9.30;99.90;;;;;;5007960;28;20513;-75
2022/04/07 04:45:18;;;;;;;16.48;5.82;;;9.30;99.90;;;;;;5001664;28;20092;-75
2022/04/07 04:47:44;;;;;;;18.63;5.28;;;9.30;99.90;;;;;;5106234;28;20060;-75
2022/04/07 04:50:13;;;;;;;16.48;5.93;;;9.30;99.90;;;;;;5002503;28;20445;-75
2022/04/07 04:52:38;;;;;;;17.65;6.03;;;9.30;99.90;;;;;;5004002;28;20038;-75
2022/04/07 04:55:04;;;;;;;19.63;6.30;;;9.30;99.90;;;;;;5015145;28;20761;-75
2022/04/07 04:57:30;;;;;;;17.35;5.65;;;9.30;99.90;;;;;;5006216;28;20049;-75
2022/04/07 04:59:56;;;;;;;15.93;5.97;;;9.30;99.90;;;;;;5003882;28;20042;-75
2022/04/07 05:02:21;;;;;;;22.48;6.72;;;9.20;99.90;;;;;;5007280;28;20036;-75
2022/04/07 05:04:47;;;;;;;19.25;6.65;;;9.20;99.90;;;;;;5007034;28;20042;-75
2022/04/07 05:07:13;;;;;;;23.23;7.97;;;9.20;99.90;;;;;;5003657;28;20079;-75
2022/04/07 05:09:38;;;;;;;19.63;6.22;;;9.20;99.90;;;;;;5009432;28;20066;-75
2022/04/07 05:12:05;;;;;;;21.05;6.88;;;9.20;99.90;;;;;;5014332;28;20046;-75
2022/04/07 05:14:30;;;;;;;17.38;5.88;;;9.20;99.90;;;;;;5111003;27;20158;-75
2022/04/07 05:16:56;;;;;;;17.15;6.43;;;9.20;99.90;;;;;;5008947;28;20045;-75
2022/04/07 05:19:22;;;;;;;21.65;6.50;;;9.20;99.90;;;;;;5006756;28;20135;-75
2022/04/07 05:21:50;;;;;;;18.05;6.25;;;9.20;99.90;;;;;;5006331;28;20077;-75
2022/04/07 05:24:19;;;;;;;17.95;5.40;;;9.20;99.90;;;;;;5009555;28;20057;-75
2022/04/07 05:26:46;;;;;;;13.57;5.45;;;9.30;99.90;;;;;;5006293;28;21023;-75
2022/04/07 05:29:12;;;;;;;14.88;5.60;;;9.30;99.90;;;;;;5005723;28;20064;-75
2022/04/07 05:31:38;;;;;;;15.50;4.85;;;9.30;99.90;;;;;;5008369;28;20049;-75
2022/04/07 05:34:03;;;;;;;14.35;4.68;;;9.30;99.90;;;;;;5004451;28;20622;-75
2022/04/07 05:36:29;;;;;;;15.90;4.95;;;9.30;99.90;;;;;;5007298;28;20427;-73
2022/04/07 05:38:55;;;;;;;13.52;4.75;;;9.30;99.90;;;;;;5008321;28;20058;-75
2022/04/07 05:41:20;;;;;;;12.10;4.40;;;9.30;99.90;;;;;;4998052;28;20058;-75
2022/04/07 05:43:46;;;;;;;16.48;4.38;;;9.30;99.90;;;;;;5008154;28;20049;-75
2022/04/07 05:46:12;;;;;;;15.93;4.57;;;9.30;99.90;;;;;;5007260;28;20050;-75
2022/04/07 05:48:38;;;;;;;17.73;5.30;;;9.30;99.90;;;;;;5004338;28;20155;-75
2022/04/07 05:51:03;;;;;;;11.85;4.00;;;9.30;99.90;;;;;;5007748;28;20092;-75
2022/04/07 05:53:34;;;;;;;15.65;4.25;;;9.30;99.90;;;;;;5007908;28;20034;-75
2022/04/07 05:56:00;;;;;;;11.70;4.28;;;9.30;99.90;;;;;;5005373;28;20034;-75
2022/04/07 05:58:26;;;;;;;15.05;4.32;;;9.30;99.90;;;;;;5005139;28;20562;-74
2022/04/07 06:00:52;;;;;;;13.18;4.45;;;9.30;99.90;;;;;;5005528;28;20046;-74
2022/04/07 06:03:18;;;;;;;14.10;4.93;;;9.30;99.90;;;;;;5006836;28;20083;-73
2022/04/07 06:05:43;;;;;;;11.68;4.10;;;9.30;99.90;;;;;;5008949;28;20498;-73
2022/04/07 06:08:09;;;;;;;11.68;4.38;;;9.30;99.90;;;;;;5016272;28;20049;-73
2022/04/07 06:10:34;;;;;;;13.50;4.10;;;9.30;99.90;;;;;;5006698;28;20050;-73
2022/04/07 06:13:00;;;;;;;13.50;4.57;;;9.30;99.90;;;;;;5005733;28;20056;-73
2022/04/07 06:15:30;;;;;;;14.18;4.38;;;9.30;99.90;;;;;;5007180;28;20376;-73
2022/04/07 06:17:56;;;;;;;11.95;4.30;;;9.30;99.90;;;;;;5006293;28;20053;-73
2022/04/07 06:20:21;;;;;;;12.95;3.92;;;9.30;99.90;;;;;;5005656;28;20419;-73
2022/04/07 06:22:47;;;;;;;12.00;3.95;;;9.30;99.90;;;;;;5005456;28;20042;-73
2022/04/07 06:25:13;;;;;;;13.63;4.38;;;9.30;99.90;;;;;;5006095;28;20057;-73
2022/04/07 06:27:41;;;;;;;7.70;1.30;;;9.30;99.90;;;;;;5004910;28;20057;-73
2022/04/07 06:30:09;;;;;;;;;;;9.00;99.90;;;;;;5005219;28;20526;-73
2022/04/07 06:32:35;;;;;;;4.05;1.00;;;8.50;99.90;;;;;;5020162;28;19921;-73
2022/04/07 06:35:01;;;;;;;4.20;0.70;;;8.10;99.90;;;;;;5004803;28;20090;-73
2022/04/07 06:37:27;;;;;;;1.77;0.60;;;7.80;99.90;;;;;;5004423;28;20042;-73
2022/04/07 06:40:03;;;;;;;2.35;0.70;;;7.60;99.90;;;;;;5005936;28;20050;-73
2022/04/07 06:42:29;;;;;;;2.73;0.60;;;7.40;99.90;;;;;;5004031;28;20057;-73
2022/04/07 06:44:55;;;;;;;5.13;0.82;;;7.20;99.90;;;;;;5002391;28;20061;-73
2022/04/07 06:47:22;;;;;;;3.33;0.90;;;7.10;99.90;;;;;;5005635;28;20107;-72
2022/04/07 06:49:52;;;;;;;3.50;0.90;;;7.00;99.90;;;;;;5004383;28;20046;-73
2022/04/07 06:52:18;;;;;;;1.67;0.80;;;7.00;99.90;;;;;;5013413;28;20133;-73
2022/04/07 06:54:44;;;;;;;3.15;0.80;;;7.00;99.90;;;;;;5007297;28;20132;-73
2022/04/07 06:57:09;;;;;;;2.83;0.75;;;6.90;99.90;;;;;;5014001;28;20112;-73
2022/04/07 06:59:35;;;;;;;1.98;0.70;;;6.90;99.90;;;;;;5012453;28;20057;-73
2022/04/07 07:02:00;;;;;;;3.13;0.90;;;6.80;99.90;;;;;;5006932;28;20454;-73
2022/04/07 07:04:26;;;;;;;5.78;0.90;;;6.80;99.90;;;;;;5004466;28;20527;-73
2022/04/07 07:06:52;;;;;;;1.98;0.77;;;6.80;99.90;;;;;;5006368;28;20052;-73
2022/04/07 07:09:17;;;;;;;2.05;0.90;;;6.80;99.90;;;;;;5004416;28;20506;-73
2022/04/07 07:11:43;;;;;;;2.60;0.93;;;6.70;99.90;;;;;;5004510;28;20061;-73
2022/04/07 07:14:08;;;;;;;1.92;0.85;;;6.70;99.90;;;;;;5004996;28;20076;-73
2022/04/07 07:16:34;;;;;;;2.03;0.70;;;6.60;99.90;;;;;;5007055;28;20088;-73
2022/04/07 07:18:59;;;;;;;3.10;0.80;;;6.50;99.90;;;;;;5001394;28;20049;-75
2022/04/07 07:21:25;;;;;;;2.33;0.77;;;6.50;99.90;;;;;;5001846;28;20038;-74
2022/04/07 07:23:50;;;;;;;2.20;0.63;;;6.50;99.90;;;;;;5005774;28;20482;-74
2022/04/07 07:26:16;;;;;;;2.50;0.70;;;6.50;99.90;;;;;;5003111;28;20050;-78
2022/04/07 07:28:42;;;;;;;2.42;0.70;;;6.40;99.90;;;;;;5006834;28;20133;-80
2022/04/07 07:31:07;;;;;;;2.80;0.65;;;6.30;99.90;;;;;;5022397;28;20045;-74
2022/04/07 07:33:33;;;;;;;2.42;0.70;;;6.30;99.90;;;;;;5005082;28;20034;-76
2022/04/07 07:35:58;;;;;;;3.92;0.88;;;6.20;99.90;;;;;;5006977;28;20509;-77
2022/04/07 07:38:24;;;;;;;1.67;0.75;;;6.10;99.90;;;;;;5007658;28;20041;-77
2022/04/07 07:40:49;;;;;;;2.17;0.70;;;6.10;99.90;;;;;;5007254;28;20392;-77
2022/04/07 07:43:15;;;;;;;2.80;0.90;;;6.10;99.90;;;;;;5005501;28;20481;-77
2022/04/07 07:45:41;;;;;;;2.90;0.95;;;6.10;99.90;;;;;;5003851;28;20136;-77
2022/04/07 07:48:06;;;;;;;4.03;1.25;;;6.00;99.90;;;;;;5001019;28;20045;-77
2022/04/07 07:50:32;;;;;;;3.20;1.35;;;6.00;99.90;;;;;;5004543;28;20527;-78
2022/04/07 07:52:58;;;;;;;3.03;0.82;;;6.00;99.90;;;;;;4994956;28;20042;-77
2022/04/07 07:55:24;;;;;;;4.25;0.93;;;5.90;99.90;;;;;;5008626;28;20044;-76
2022/04/07 07:57:50;;;;;;;2.95;1.20;;;5.80;99.90;;;;;;5006554;28;20042;-76
2022/04/07 08:00:17;;;;;;;21.02;16.63;;;5.80;99.90;;;;;;5006835;28;20099;-75
2022/04/07 08:02:43;;;;;;;4.85;2.88;;;5.90;99.90;;;;;;5006423;28;20625;-76
2022/04/07 08:05:09;;;;;;;7.75;5.53;;;5.90;99.90;;;;;;5004565;28;20488;-76
2022/04/07 08:07:40;;;;;;;21.20;15.95;;;5.90;99.90;;;;;;5005322;28;20042;-76
2022/04/07 08:10:11;;;;;;;6.65;1.60;;;6.00;99.90;;;;;;5009832;28;20037;-76
2022/04/07 08:12:38;;;;;;;4.50;1.20;;;6.00;99.90;;;;;;5026121;28;20053;-78
2022/04/07 08:15:05;;;;;;;5.90;1.95;;;6.00;99.90;;;;;;5050755;28;20557;-81
2022/04/07 08:17:30;;;;;;;6.27;3.60;;;6.00;99.90;;;;;;5000991;28;20441;-74
2022/04/07 08:19:56;;;;;;;4.45;2.15;;;6.10;99.90;;;;;;5005484;28;20357;-73
2022/04/07 08:22:22;;;;;;;38.78;25.05;;;6.10;99.90;;;;;;5003401;28;20057;-72
2022/04/07 08:24:47;;;;;;;58.60;45.28;;;6.10;99.90;;;;;;5005706;28;20049;-77
2022/04/07 08:27:13;;;;;;;18.58;13.90;;;6.20;99.90;;;;;;5005587;28;20481;-80
2022/04/07 08:29:39;;;;;;;23.58;20.25;;;6.20;99.90;;;;;;5107377;27;20153;-76
2022/04/07 08:32:05;;;;;;;15.63;13.27;;;6.20;99.90;;;;;;5005720;28;20498;-77
2022/04/07 08:34:31;;;;;;;6.97;4.15;;;6.30;99.90;;;;;;5037310;28;20044;-76
2022/04/07 08:36:57;;;;;;;5.47;2.28;;;6.30;99.90;;;;;;5004185;28;20122;-77
2022/04/07 08:39:23;;;;;;;3.95;2.03;;;6.30;99.90;;;;;;5025418;28;20111;-77
2022/04/07 08:41:49;;;;;;;6.53;3.15;;;6.30;99.90;;;;;;5088712;28;20059;-77
2022/04/07 08:44:16;;;;;;;3.20;2.00;;;6.30;99.90;;;;;;5073746;28;20573;-75
2022/04/07 08:46:52;;;;;;;3.53;1.90;;;6.40;99.90;;;;;;5022106;28;20042;-75
2022/04/07 08:49:20;;;;;;;6.38;3.25;;;6.30;99.90;;;;;;5102985;28;20407;-76
2022/04/07 08:51:47;;;;;;;4.05;1.42;;;6.40;99.90;;;;;;5005139;28;20034;-77
2022/04/07 08:54:13;;;;;;;7.30;1.90;;;6.40;99.90;;;;;;5004335;28;20086;-76
2022/04/07 08:56:39;;;;;;;4.65;1.60;;;6.50;99.90;;;;;;5005658;28;20054;-76
2022/04/07 08:59:05;;;;;;;3.20;1.13;;;6.60;99.90;;;;;;5004465;28;20497;-82
2022/04/07 09:01:30;;;;;;;4.05;1.25;;;6.60;99.90;;;;;;5004353;28;20046;-83
2022/04/07 09:03:56;;;;;;;4.35;1.10;;;6.60;99.90;;;;;;5003755;28;20037;-80
2022/04/07 09:06:23;;;;;;;2.83;1.48;;;6.70;99.90;;;;;;5022865;28;20125;-78
2022/04/07 09:08:49;;;;;;;3.67;1.20;;;6.70;99.90;;;;;;5003122;28;20080;-77
2022/04/07 09:11:18;;;;;;;3.78;1.20;;;6.80;99.90;;;;;;5043071;28;20123;-77
2022/04/07 09:13:45;;;;;;;4.53;0.90;;;6.90;99.90;;;;;;5036434;28;20053;-80
2022/04/07 09:16:15;;;;;;;3.40;1.08;;;7.10;99.90;;;;;;5001791;28;20049;-79
2022/04/07 09:18:42;;;;;;;3.45;1.10;;;7.30;99.90;;;;;;5056309;28;20398;-78
2022/04/07 09:21:27;;;;;;;4.72;1.20;;;7.40;99.90;;;;;;5038055;28;20046;-78
2022/04/07 09:23:54;;;;;;;6.80;1.40;;;7.60;99.90;;;;;;5005315;28;20077;-78
2022/04/07 09:26:20;;;;;;;4.00;1.10;;;7.80;99.90;;;;;;5003714;28;20034;-77
2022/04/07 09:28:46;;;;;;;4.28;1.15;;;8.00;99.90;;;;;;5006010;28;20061;-77
2022/04/07 09:31:16;;;;;;;3.65;1.25;;;8.10;99.90;;;;;;5022170;28;20048;-78
2022/04/07 09:33:50;;;;;;;4.03;1.10;;;8.30;99.90;;;;;;5003076;28;20046;-81
2022/04/07 09:36:21;;;;;;;4.35;1.10;;;8.40;99.90;;;;;;5009666;28;20507;-77
2022/04/07 09:38:55;;;;;;;2.85;1.05;;;8.60;99.90;;;;;;5005007;28;20054;-76
2022/04/07 09:41:22;;;;;;;6.90;1.40;;;8.70;99.90;;;;;;5007620;28;20048;-79
2022/04/07 09:43:49;;;;;;;6.82;1.60;;;8.70;99.90;;;;;;5003171;28;20049;-77
2022/04/07 09:46:15;;;;;;;;;;;8.90;99.90;;;;;;5007862;28;20053;-76
2022/04/07 09:49:00;;;;;;;7.85;1.83;;;9.00;99.90;;;;;;5109115;27;19943;-74
2022/04/07 09:51:27;;;;;;;7.53;1.52;;;9.10;99.90;;;;;;5006648;28;20129;-74
2022/04/07 09:53:55;;;;;;;4.90;1.40;;;9.20;99.90;;;;;;5006583;28;20095;-76
2022/04/07 09:56:24;;;;;;;7.18;1.85;;;9.30;99.90;;;;;;5034727;28;20294;-75
2022/04/07 09:58:53;;;;;;;6.15;1.63;;;9.40;99.90;;;;;;5023941;28;20041;-76
2022/04/07 10:01:18;;;;;;;6.70;1.75;;;9.50;99.90;;;;;;5028054;28;20054;-75
2022/04/07 10:03:44;;;;;;;6.68;1.70;;;9.60;99.90;;;;;;5008507;28;20377;-74
2022/04/07 10:06:14;;;;;;;6.72;2.00;;;9.60;99.90;;;;;;5022356;28;20041;-73
2022/04/07 10:08:41;;;;;;;8.75;2.08;;;9.60;99.90;;;;;;4993971;28;20060;-77
2022/04/07 10:11:07;;;;;;;;;;;9.60;99.90;;;;;;5006255;28;20106;-79
2022/04/07 10:13:35;;;;;;;8.98;2.17;;;9.70;99.90;;;;;;5007860;28;19922;-77
2022/04/07 10:16:01;;;;;;;8.68;2.17;;;9.70;99.90;;;;;;5004686;28;20042;-76
2022/04/07 10:18:33;;;;;;;9.18;2.05;;;9.70;99.90;;;;;;5007573;28;20049;-79
2022/04/07 10:21:00;;;;;;;9.50;2.00;;;9.80;99.90;;;;;;5012062;28;20468;-79
2022/04/07 10:23:46;;;;;;;14.25;2.45;;;9.80;99.90;;;;;;5009226;28;20065;-76
2022/04/07 10:26:12;;;;;;;11.35;2.08;;;9.80;99.90;;;;;;5006768;28;20387;-77
2022/04/07 10:28:38;;;;;;;7.82;2.30;;;9.70;99.90;;;;;;5006096;28;20140;-75
2022/04/07 10:31:15;;;;;;;10.73;2.20;;;9.70;99.90;;;;;;5008230;28;20061;-71
2022/04/07 10:33:46;;;;;;;10.55;2.30;;;9.70;99.90;;;;;;5015380;28;20496;-78
2022/04/07 10:36:17;;;;;;;10.63;2.45;;;9.70;99.90;;;;;;5104848;27;20086;-80
2022/04/07 10:38:47;;;;;;;9.05;2.00;;;9.70;99.90;;;;;;5005579;28;20472;-76
2022/04/07 10:41:38;;;;;;;9.45;2.25;;;9.70;99.90;;;;;;5006868;28;20049;-79
2022/04/07 10:44:13;;;;;;;11.40;2.40;;;9.70;99.90;;;;;;5006427;28;20114;-78
2022/04/07 10:46:39;;;;;;;11.45;2.35;;;9.70;99.90;;;;;;5006580;28;20137;-79
2022/04/07 10:49:09;;;;;;;8.18;1.83;;;9.60;99.90;;;;;;5010075;28;20122;-77
2022/04/07 10:51:46;;;;;;;10.05;2.88;;;9.50;99.90;;;;;;5009514;28;20034;-78
2022/04/07 10:54:12;;;;;;;13.15;2.97;;;9.40;99.90;;;;;;5006853;28;20103;-78
2022/04/07 10:56:39;;;;;;;9.38;2.85;;;9.30;99.90;;;;;;5006359;28;20144;-77
2022/04/07 10:59:27;;;;;;;11.80;2.10;;;9.30;99.90;;;;;;5003870;28;20060;-75
2022/04/07 11:02:14;;;;;;;15.20;2.65;;;9.30;99.90;;;;;;5004986;28;20049;-78
2022/04/07 11:05:08;;;;;;;14.75;3.00;;;9.40;99.90;;;;;;5002854;28;20129;-77
2022/04/07 11:07:50;;;;;;;11.35;2.40;;;9.60;99.90;;;;;;5004983;28;20045;-77
2022/04/07 11:10:16;;;;;;;10.80;2.70;;;9.70;99.90;;;;;;5004158;28;20045;-77
2022/04/07 11:12:44;;;;;;;14.88;2.85;;;9.90;99.90;;;;;;5004908;28;20052;-77
2022/04/07 11:15:24;;;;;;;14.18;2.85;;;10.00;99.90;;;;;;5006979;28;20492;-78
2022/04/07 11:17:52;;;;;;;9.90;2.45;;;10.00;99.90;;;;;;5006393;28;20057;-78
2022/04/07 11:20:22;;;;;;;10.93;2.97;;;10.10;99.90;;;;;;5006139;28;20037;-77
2022/04/07 11:22:52;;;;;;;11.00;2.70;;;10.20;99.90;;;;;;5007121;28;20042;-76
2022/04/07 11:25:25;;;;;;;12.88;3.25;;;10.30;99.90;;;;;;5000214;28;20081;-75
2022/04/07 11:28:14;;;;;;;14.63;3.10;;;10.40;99.90;;;;;;5102289;27;20046;-74
2022/04/07 11:30:49;;;;;;;12.57;2.50;;;10.70;99.90;;;;;;5004603;28;20690;-74
2022/04/07 11:33:20;;;;;;;7.65;2.30;;;10.80;99.90;;;;;;5005153;28;20102;-77
2022/04/07 11:35:58;;;;;;;10.40;2.30;;;10.70;99.90;;;;;;5004734;28;20042;-73
2022/04/07 11:38:28;;;;;;;9.02;1.90;;;10.30;99.90;;;;;;5004820;28;20050;-75
2022/04/07 11:41:04;;;;;;;9.55;2.00;;;9.80;99.90;;;;;;5107398;27;20133;-78
2022/04/07 11:43:32;;;;;;;9.40;1.95;;;9.40;99.90;;;;;;5005779;28;20041;-75
2022/04/07 11:45:58;;;;;;;11.10;2.35;;;9.20;99.90;;;;;;5006205;28;20077;-76
2022/04/07 11:48:29;;;;;;;12.15;2.10;;;9.10;99.90;;;;;;5003999;28;20124;-74
2022/04/07 11:51:00;;;;;;;12.68;2.50;;;9.10;99.90;;;;;;5007731;28;20057;-77
2022/04/07 11:53:30;;;;;;;12.20;2.70;;;9.30;99.90;;;;;;5002156;28;20490;-74
2022/04/07 11:56:17;;;;;;;12.98;2.63;;;9.50;99.90;;;;;;5005113;28;20053;-75
2022/04/07 11:58:44;;;;;;;;;;;9.80;99.90;;;;;;5005838;28;20471;-76
2022/04/07 12:01:11;;;;;;;13.67;3.17;;;9.90;99.90;;;;;;5106862;27;20009;-74
2022/04/07 12:03:40;;;;;;;;;;;10.10;99.90;;;;;;5010962;28;20042;-78
2022/04/07 12:06:06;;;;;;;15.27;2.72;;;10.20;99.90;;;;;;5005933;28;19973;-75
2022/04/07 12:08:32;;;;;;;14.23;2.80;;;10.30;99.90;;;;;;5005211;28;20713;-76
2022/04/07 12:10:58;;;;;;;11.23;2.50;;;10.20;99.90;;;;;;5022890;28;20045;-79
2022/04/07 12:13:24;;;;;;;14.90;3.10;;;10.30;99.90;;;;;;5004501;28;20057;-77
2022/04/07 12:15:50;;;;;;;10.48;2.28;;;10.30;99.90;;;;;;5006316;28;20517;-75
2022/04/07 12:18:27;;;;;;;13.23;2.63;;;10.40;99.90;;;;;;5005644;28;20072;-75
2022/04/07 12:21:09;;;;;;;11.45;2.78;;;10.50;99.90;;;;;;5004045;28;20107;-77
2022/04/07 12:23:37;;;;;;;11.43;2.47;;;10.50;99.90;;;;;;5004311;28;20088;-81
2022/04/07 12:26:03;;;;;;;14.57;2.55;;;10.60;99.90;;;;;;5103998;27;20092;-76
2022/04/07 12:28:38;;;;;;;10.68;2.78;;;10.70;99.90;;;;;;5006031;28;20077;-74
2022/04/07 12:31:20;;;;;;;12.73;2.88;;;10.80;99.90;;;;;;5016078;28;20065;-77
2022/04/07 12:33:48;;;;;;;12.05;2.65;;;10.80;99.90;;;;;;5003456;28;20038;-76
2022/04/07 12:36:36;;;;;;;12.32;3.10;;;10.70;99.90;;;;;;5001858;28;20046;-75
2022/04/07 12:39:26;;;;;;;10.13;2.70;;;10.60;99.90;;;;;;5026026;28;20054;-78
2022/04/07 12:41:52;;;;;;;12.35;2.92;;;10.40;99.90;;;;;;5026517;28;20042;-78
2022/04/07 12:44:35;;;;;;;14.67;3.63;;;10.40;99.90;;;;;;5005132;28;20045;-80
2022/04/07 12:47:08;;;;;;;13.02;3.10;;;10.40;99.90;;;;;;5005720;28;20050;-84
2022/04/07 12:49:35;;;;;;;12.52;2.92;;;10.50;99.90;;;;;;5006011;28;20053;-76
2022/04/07 12:52:11;;;;;;;14.27;3.00;;;10.70;99.90;;;;;;5014812;28;20046;-75
2022/04/07 12:54:53;;;;;;;14.73;3.33;;;10.90;99.90;;;;;;5047406;28;20090;-76